Time;durP1;ratioP1;P1;durP2;ratioP2;P2;SDS_P1;SDS_P2;PMS_P1;PMS_P2;Temp;Humidity;BMP_temperature;BMP_pressure;BME280_temperature;BME280_humidity;BME280_pressure;Samples;Min_cycle;Max_cycle;Signal;HPM_P1;HPM_P2
2023/08/13 00:01:37;;;;;;;10.20;3.70;;;22.50;99.90;;;;;;5025744;28;20041;-77
2023/08/13 00:04:04;;;;;;;10.60;3.78;;;22.60;99.90;;;;;;5034817;28;20049;-77
2023/08/13 00:06:31;;;;;;;4.85;3.30;;;22.60;99.90;;;;;;5035624;28;20095;-77
2023/08/13 00:08:57;;;;;;;6.47;4.05;;;22.60;99.90;;;;;;5049738;28;20128;-77
2023/08/13 00:11:24;;;;;;;7.38;3.83;;;22.60;99.90;;;;;;5043415;28;20053;-77
2023/08/13 00:13:51;;;;;;;7.20;3.22;;;22.60;99.90;;;;;;5033353;28;20045;-77
2023/08/13 00:16:18;;;;;;;9.07;3.38;;;22.60;99.90;;;;;;5041050;28;20103;-77
2023/08/13 00:18:45;;;;;;;7.40;3.13;;;22.60;99.90;;;;;;5046427;28;20042;-77
2023/08/13 00:21:12;;;;;;;9.77;3.63;;;22.60;99.90;;;;;;5044858;28;20123;-78
2023/08/13 00:23:38;;;;;;;5.07;3.30;;;22.60;99.90;;;;;;5046966;28;20049;-76
2023/08/13 00:26:05;;;;;;;7.32;3.03;;;22.60;99.90;;;;;;5046024;28;20057;-78
2023/08/13 00:28:32;;;;;;;13.57;3.90;;;22.60;99.90;;;;;;5043627;28;20103;-77
2023/08/13 00:30:59;;;;;;;7.18;3.70;;;22.60;99.90;;;;;;5033219;28;20042;-78
2023/08/13 00:33:26;;;;;;;9.50;3.67;;;22.60;99.90;;;;;;5043573;28;20045;-78
2023/08/13 00:35:53;;;;;;;5.55;3.72;;;22.60;99.90;;;;;;5046589;28;20508;-78
2023/08/13 00:38:19;;;;;;;9.27;3.42;;;22.60;99.90;;;;;;5046592;28;20046;-77
2023/08/13 00:40:46;;;;;;;7.35;3.63;;;22.60;99.90;;;;;;5045479;28;20413;-78
2023/08/13 00:43:13;;;;;;;6.10;3.35;;;22.60;99.90;;;;;;5043452;28;20615;-78
2023/08/13 00:45:40;;;;;;;9.90;3.85;;;22.60;99.90;;;;;;5021336;28;20068;-78
2023/08/13 00:48:08;;;;;;;8.00;3.78;;;22.60;99.90;;;;;;5033681;28;20045;-78
2023/08/13 00:50:36;;;;;;;8.45;3.70;;;22.60;99.90;;;;;;5044455;28;20111;-77
2023/08/13 00:53:04;;;;;;;8.65;3.40;;;22.60;99.90;;;;;;5042977;28;20068;-78
2023/08/13 00:55:34;;;;;;;8.20;3.47;;;22.60;99.90;;;;;;5043500;28;20045;-78
2023/08/13 00:58:02;;;;;;;7.55;3.67;;;22.60;99.90;;;;;;5042891;28;20139;-78
2023/08/13 01:00:30;;;;;;;5.82;3.40;;;22.70;99.90;;;;;;5036981;28;20049;-78
2023/08/13 01:02:57;;;;;;;5.65;3.10;;;22.70;99.90;;;;;;5033640;28;20095;-79
2023/08/13 01:05:37;;;;;;;7.60;3.30;;;22.70;99.90;;;;;;5053051;28;20658;-77
2023/08/13 01:08:19;;;;;;;8.63;3.50;;;22.70;99.90;;;;;;5037578;28;20056;-77
2023/08/13 01:11:00;;;;;;;8.52;3.55;;;22.70;99.90;;;;;;5043445;28;20096;-78
2023/08/13 01:13:37;;;;;;;7.55;3.50;;;22.70;99.90;;;;;;5050694;28;20046;-77
2023/08/13 01:16:05;;;;;;;7.25;3.40;;;22.70;99.90;;;;;;5032068;28;20129;-77
2023/08/13 01:18:33;;;;;;;6.97;3.67;;;22.70;99.90;;;;;;5048602;28;20053;-78
2023/08/13 01:21:00;;;;;;;6.88;3.53;;;22.70;99.90;;;;;;5045279;28;20052;-77
2023/08/13 01:23:27;;;;;;;7.18;3.70;;;22.70;99.90;;;;;;5039713;28;20566;-79
2023/08/13 01:25:58;;;;;;;6.00;3.17;;;22.70;99.90;;;;;;5045456;28;20045;-77
2023/08/13 01:28:41;;;;;;;8.45;3.60;;;22.70;99.90;;;;;;5050612;28;20053;-77
2023/08/13 01:31:14;;;;;;;7.50;3.65;;;22.70;99.90;;;;;;5050336;28;20045;-78
2023/08/13 01:33:43;;;;;;;7.43;3.70;;;22.70;99.90;;;;;;5044033;28;20567;-77
2023/08/13 01:36:11;;;;;;;9.02;4.50;;;22.70;99.90;;;;;;5048186;28;20072;-78
2023/08/13 01:38:38;;;;;;;5.38;2.83;;;22.70;99.90;;;;;;5040302;28;20045;-77
2023/08/13 01:41:05;;;;;;;8.38;3.50;;;22.60;99.90;;;;;;5032959;28;20707;-77
2023/08/13 01:43:32;;;;;;;8.75;3.40;;;22.60;99.90;;;;;;5040532;28;20106;-77
2023/08/13 01:46:01;;;;;;;8.40;3.65;;;22.70;99.90;;;;;;5037498;28;20500;-77
2023/08/13 01:48:28;;;;;;;8.43;4.45;;;22.60;99.90;;;;;;5051245;28;20060;-77
2023/08/13 01:50:55;;;;;;;8.95;4.05;;;22.60;99.90;;;;;;5060186;28;20480;-77
2023/08/13 01:53:22;;;;;;;8.90;4.05;;;22.60;99.90;;;;;;5050808;28;20050;-77
2023/08/13 01:55:49;;;;;;;8.35;3.97;;;22.60;99.90;;;;;;5038974;28;20075;-77
2023/08/13 01:58:16;;;;;;;8.77;4.13;;;22.60;99.90;;;;;;5053853;28;20052;-78
2023/08/13 02:00:42;;;;;;;5.55;3.80;;;22.60;99.90;;;;;;5050235;28;20055;-77
2023/08/13 02:03:10;;;;;;;5.00;3.63;;;22.60;99.90;;;;;;5056064;28;20071;-77
2023/08/13 02:05:37;;;;;;;7.10;4.40;;;22.60;99.90;;;;;;5053205;28;20053;-78
2023/08/13 02:08:04;;;;;;;8.50;3.80;;;22.50;99.90;;;;;;5032152;28;20570;-78
2023/08/13 02:10:31;;;;;;;12.00;3.50;;;22.50;99.90;;;;;;5024035;28;20084;-79
2023/08/13 02:12:59;;;;;;;9.30;4.05;;;22.60;99.90;;;;;;5035747;28;20115;-78
2023/08/13 02:15:25;;;;;;;9.13;3.53;;;22.60;99.90;;;;;;5046692;28;20049;-78
2023/08/13 02:17:52;;;;;;;11.05;4.18;;;22.50;99.90;;;;;;5057108;28;20048;-77
2023/08/13 02:20:19;;;;;;;6.70;3.53;;;22.50;99.90;;;;;;5055560;28;20049;-77
2023/08/13 02:22:46;;;;;;;7.40;3.80;;;22.50;99.90;;;;;;5051193;28;20042;-77
2023/08/13 02:25:13;;;;;;;7.20;3.92;;;22.50;99.90;;;;;;5044311;28;20061;-77
2023/08/13 02:27:40;;;;;;;7.30;3.55;;;22.50;99.90;;;;;;5056267;28;20077;-77
2023/08/13 02:30:07;;;;;;;5.75;3.08;;;22.50;99.90;;;;;;5055559;28;20454;-77
2023/08/13 02:32:34;;;;;;;7.20;3.85;;;22.50;99.90;;;;;;5053652;28;20058;-77
2023/08/13 02:35:00;;;;;;;7.70;3.40;;;22.50;99.90;;;;;;5052469;28;20476;-79
2023/08/13 02:37:27;;;;;;;7.72;3.72;;;22.50;99.90;;;;;;5037009;28;20050;-79
2023/08/13 02:39:54;;;;;;;10.70;3.40;;;22.50;99.90;;;;;;5033310;28;20689;-79
2023/08/13 02:42:20;;;;;;;5.35;3.55;;;22.50;99.90;;;;;;5041780;28;20042;-78
2023/08/13 02:44:47;;;;;;;9.10;4.32;;;22.50;99.90;;;;;;5048013;28;20045;-78
2023/08/13 02:47:14;;;;;;;8.60;3.67;;;22.50;99.90;;;;;;5041258;28;20095;-78
2023/08/13 02:49:41;;;;;;;6.88;3.50;;;22.50;99.90;;;;;;5026342;28;20048;-78
2023/08/13 02:52:08;;;;;;;7.88;3.70;;;22.50;99.90;;;;;;5040075;28;20045;-78
2023/08/13 02:54:35;;;;;;;7.25;4.10;;;22.50;99.90;;;;;;5042229;28;20142;-78
2023/08/13 02:57:01;;;;;;;8.20;4.10;;;22.50;99.90;;;;;;5046788;28;20069;-78
2023/08/13 02:59:28;;;;;;;9.35;4.07;;;22.50;99.90;;;;;;5050514;28;20045;-78
2023/08/13 03:01:55;;;;;;;7.55;4.00;;;22.50;99.90;;;;;;5046244;28;20532;-79
2023/08/13 03:04:22;;;;;;;7.20;4.10;;;22.50;99.90;;;;;;5045563;28;20048;-78
2023/08/13 03:06:48;;;;;;;7.85;4.22;;;22.50;99.90;;;;;;5044766;28;20413;-78
2023/08/13 03:09:20;;;;;;;8.07;4.57;;;22.40;99.90;;;;;;5042474;28;20493;-78
2023/08/13 03:11:47;;;;;;;6.20;3.88;;;22.40;99.90;;;;;;5038132;28;20084;-78
2023/08/13 03:14:15;;;;;;;18.13;4.60;;;22.40;99.90;;;;;;5055602;28;20092;-77
2023/08/13 03:16:42;;;;;;;7.72;5.70;;;22.40;99.90;;;;;;5047773;28;20052;-78
2023/08/13 03:19:09;;;;;;;9.68;6.50;;;22.40;99.90;;;;;;5049175;28;20091;-78
2023/08/13 03:21:36;;;;;;;8.98;6.40;;;22.30;99.90;;;;;;5044955;28;20046;-78
2023/08/13 03:24:03;;;;;;;10.55;6.38;;;22.30;99.90;;;;;;5040742;28;20045;-78
2023/08/13 03:26:30;;;;;;;12.57;6.90;;;22.30;99.90;;;;;;5044151;28;20042;-77
2023/08/13 03:28:57;;;;;;;9.90;7.28;;;22.30;99.90;;;;;;5058320;28;20524;-77
2023/08/13 03:31:24;;;;;;;10.00;7.55;;;22.30;99.90;;;;;;5038323;28;20045;-78
2023/08/13 03:33:50;;;;;;;10.07;6.85;;;22.30;99.90;;;;;;5038078;28;20045;-78
2023/08/13 03:36:17;;;;;;;12.13;6.45;;;22.30;99.90;;;;;;5039604;28;20041;-78
2023/08/13 03:38:44;;;;;;;9.15;5.82;;;22.30;99.90;;;;;;5037872;28;20041;-78
2023/08/13 03:41:11;;;;;;;7.40;5.10;;;22.30;99.90;;;;;;5035745;28;20051;-78
2023/08/13 03:43:37;;;;;;;10.13;5.32;;;22.30;99.90;;;;;;5038251;28;20102;-78
2023/08/13 03:46:04;;;;;;;10.90;5.60;;;22.30;99.90;;;;;;5052539;28;20123;-78
2023/08/13 03:48:31;;;;;;;7.80;5.75;;;22.40;99.90;;;;;;5052174;28;20137;-78
2023/08/13 03:50:58;;;;;;;9.20;5.20;;;22.30;99.90;;;;;;5046036;28;20056;-77
2023/08/13 03:53:24;;;;;;;10.02;5.45;;;22.40;99.90;;;;;;5037661;28;20080;-78
2023/08/13 03:55:51;;;;;;;8.43;5.65;;;22.40;99.90;;;;;;5036231;28;20056;-78
2023/08/13 03:58:18;;;;;;;8.63;4.70;;;22.40;99.90;;;;;;5048433;28;20098;-79
2023/08/13 04:00:45;;;;;;;9.02;6.05;;;22.40;99.90;;;;;;5034061;28;20096;-78
2023/08/13 04:03:11;;;;;;;10.50;6.38;;;22.30;99.90;;;;;;5041610;28;20049;-77
2023/08/13 04:05:52;;;;;;;10.55;6.05;;;22.40;99.90;;;;;;5044476;28;20057;-78
2023/08/13 04:08:18;;;;;;;7.93;5.00;;;22.40;99.90;;;;;;5037556;28;20104;-77
2023/08/13 04:10:45;;;;;;;7.35;5.10;;;22.40;99.90;;;;;;5045196;28;20060;-78
2023/08/13 04:13:12;;;;;;;9.30;6.03;;;22.40;99.90;;;;;;5047929;28;20049;-77
2023/08/13 04:15:39;;;;;;;7.90;6.07;;;22.40;99.90;;;;;;5030718;28;20045;-77
2023/08/13 04:18:06;;;;;;;8.63;5.75;;;22.40;99.90;;;;;;5041309;28;20072;-78
2023/08/13 04:20:36;;;;;;;9.50;5.68;;;22.40;99.90;;;;;;5044927;28;20129;-77
2023/08/13 04:23:03;;;;;;;7.35;5.35;;;22.30;99.90;;;;;;5036134;28;20049;-77
2023/08/13 04:25:31;;;;;;;8.95;5.57;;;22.30;99.90;;;;;;5048828;28;20492;-77
2023/08/13 04:27:58;;;;;;;8.88;5.38;;;22.30;99.90;;;;;;5028803;28;20136;-77
2023/08/13 04:30:24;;;;;;;8.90;5.32;;;22.30;99.90;;;;;;5043267;28;20149;-78
2023/08/13 04:32:55;;;;;;;8.50;5.25;;;22.30;99.90;;;;;;5039006;28;20413;-81
2023/08/13 04:35:23;;;;;;;12.50;5.75;;;22.30;99.90;;;;;;5042195;28;20084;-76
2023/08/13 04:37:50;;;;;;;9.25;5.32;;;22.30;99.90;;;;;;5037368;28;20053;-77
2023/08/13 04:40:18;;;;;;;11.57;5.82;;;22.30;99.90;;;;;;5046915;28;20055;-77
2023/08/13 04:42:44;;;;;;;12.05;5.72;;;22.30;99.90;;;;;;5044877;28;20260;-77
2023/08/13 04:45:12;;;;;;;7.00;5.25;;;22.30;99.90;;;;;;5043154;28;20573;-77
2023/08/13 04:47:39;;;;;;;9.98;6.43;;;22.30;99.90;;;;;;5043066;28;20049;-76
2023/08/13 04:50:08;;;;;;;7.65;5.57;;;22.30;99.90;;;;;;5035275;28;20064;-77
2023/08/13 04:52:35;;;;;;;8.27;4.90;;;22.30;99.90;;;;;;5049202;28;20058;-77
2023/08/13 04:55:02;;;;;;;9.23;5.18;;;22.30;99.90;;;;;;5044470;28;20088;-76
2023/08/13 04:57:29;;;;;;;7.35;5.32;;;22.30;99.90;;;;;;5045351;28;20041;-75
2023/08/13 04:59:57;;;;;;;13.13;5.25;;;22.30;99.90;;;;;;5034875;28;20045;-76
2023/08/13 05:02:24;;;;;;;9.95;5.80;;;22.30;99.90;;;;;;5021058;28;20046;-78
2023/08/13 05:04:51;;;;;;;11.38;6.45;;;22.30;99.90;;;;;;5031963;28;20227;-78
2023/08/13 05:07:17;;;;;;;10.73;5.65;;;22.30;99.90;;;;;;5040690;28;20064;-78
2023/08/13 05:09:44;;;;;;;9.65;5.45;;;22.30;99.90;;;;;;5040525;28;20266;-77
2023/08/13 05:12:11;;;;;;;5.93;5.20;;;22.30;99.90;;;;;;5043249;28;20106;-77
2023/08/13 05:14:38;;;;;;;8.32;5.45;;;22.30;99.90;;;;;;5032049;28;20045;-78
2023/08/13 05:17:17;;;;;;;9.38;4.85;;;22.30;99.90;;;;;;5019642;28;20046;-77
2023/08/13 05:19:44;;;;;;;8.50;5.07;;;22.40;99.90;;;;;;5042989;28;20516;-77
2023/08/13 05:22:10;;;;;;;8.55;4.70;;;22.40;99.90;;;;;;5045566;28;20099;-77
2023/08/13 05:24:38;;;;;;;10.65;5.20;;;22.50;99.90;;;;;;5043654;28;20073;-78
2023/08/13 05:27:05;;;;;;;11.77;4.97;;;22.50;99.90;;;;;;5044280;28;20091;-77
2023/08/13 05:29:32;;;;;;;7.05;5.30;;;22.50;99.90;;;;;;5029467;28;20072;-77
2023/08/13 05:31:58;;;;;;;9.93;5.57;;;22.50;99.90;;;;;;5040117;28;20049;-76
2023/08/13 05:34:25;;;;;;;10.32;5.70;;;22.50;99.90;;;;;;5046960;28;20098;-76
2023/08/13 05:36:52;;;;;;;8.82;5.55;;;22.50;99.90;;;;;;5047272;28;20037;-76
2023/08/13 05:39:19;;;;;;;9.73;6.20;;;22.50;99.90;;;;;;5046309;28;20048;-76
2023/08/13 05:41:46;;;;;;;9.80;5.85;;;22.60;99.90;;;;;;5041590;28;20444;-77
2023/08/13 05:44:12;;;;;;;7.70;5.60;;;22.50;99.90;;;;;;5040496;28;20402;-76
2023/08/13 05:46:39;;;;;;;7.93;5.07;;;22.60;99.90;;;;;;5034172;28;20050;-76
2023/08/13 05:49:06;;;;;;;10.75;5.93;;;22.60;99.90;;;;;;5044283;28;20049;-77
2023/08/13 05:51:32;;;;;;;12.13;5.70;;;22.60;99.90;;;;;;5034807;28;20048;-76
2023/08/13 05:53:59;;;;;;;9.82;6.45;;;22.60;99.90;;;;;;5038156;28;20091;-77
2023/08/13 05:56:26;;;;;;;10.48;6.38;;;22.60;99.90;;;;;;5031704;28;20912;-77
2023/08/13 05:58:53;;;;;;;7.97;5.90;;;22.70;99.90;;;;;;5032590;28;20162;-77
2023/08/13 06:01:20;;;;;;;8.18;5.88;;;22.70;99.90;;;;;;5040060;28;20099;-77
2023/08/13 06:03:47;;;;;;;6.63;5.30;;;22.80;99.90;;;;;;5048278;28;20061;-78
2023/08/13 06:06:15;;;;;;;9.27;5.75;;;22.80;99.90;;;;;;5047890;28;20056;-76
2023/08/13 06:08:42;;;;;;;8.73;5.90;;;22.90;99.90;;;;;;5043155;28;20119;-76
2023/08/13 06:11:09;;;;;;;7.80;5.32;;;22.90;99.90;;;;;;5033793;28;20069;-76
2023/08/13 06:13:38;;;;;;;11.05;6.43;;;22.90;99.90;;;;;;5045352;28;20095;-75
2023/08/13 06:16:06;;;;;;;9.15;6.07;;;22.90;99.90;;;;;;5039844;28;20128;-76
2023/08/13 06:18:34;;;;;;;8.02;5.75;;;22.90;99.90;;;;;;5042151;28;20122;-76
2023/08/13 06:21:03;;;;;;;10.15;6.38;;;23.00;99.90;;;;;;5045671;28;20037;-77
2023/08/13 06:23:30;;;;;;;13.30;7.60;;;23.00;99.90;;;;;;5032588;28;20116;-76
2023/08/13 06:25:58;;;;;;;12.30;7.38;;;23.00;99.90;;;;;;5037991;28;20080;-77
2023/08/13 06:28:25;;;;;;;11.45;7.72;;;23.10;99.90;;;;;;5035359;28;20057;-77
2023/08/13 06:30:51;;;;;;;12.95;8.57;;;23.10;99.90;;;;;;5023528;28;20049;-77
2023/08/13 06:33:19;;;;;;;11.32;8.35;;;23.20;99.90;;;;;;5043151;28;20500;-77
2023/08/13 06:35:46;;;;;;;13.23;10.88;;;23.20;99.90;;;;;;5046338;28;20527;-77
2023/08/13 06:38:16;;;;;;;17.15;11.43;;;23.20;99.90;;;;;;5047417;28;20099;-76
2023/08/13 06:40:44;;;;;;;19.13;11.02;;;23.20;99.90;;;;;;5022262;28;20045;-77
2023/08/13 06:43:11;;;;;;;20.45;12.52;;;23.20;99.90;;;;;;5045527;28;20050;-77
2023/08/13 06:45:38;;;;;;;16.67;11.32;;;23.30;99.90;;;;;;5040613;28;20520;-77
2023/08/13 06:48:05;;;;;;;13.85;10.80;;;23.30;99.90;;;;;;5048609;28;20539;-78
2023/08/13 06:50:33;;;;;;;15.57;10.52;;;23.30;99.90;;;;;;5046996;28;20048;-77
2023/08/13 06:53:00;;;;;;;15.30;11.07;;;23.40;99.90;;;;;;5035700;28;20045;-77
2023/08/13 06:55:27;;;;;;;15.15;9.38;;;23.50;99.90;;;;;;5046584;28;20136;-78
2023/08/13 06:57:53;;;;;;;15.27;11.75;;;23.50;99.90;;;;;;5027480;28;20037;-78
2023/08/13 07:00:20;;;;;;;20.02;12.77;;;23.60;99.90;;;;;;5045551;28;20045;-78
2023/08/13 07:03:04;;;;;;;12.07;10.57;;;23.70;99.90;;;;;;5037605;28;20046;-76
2023/08/13 07:05:31;;;;;;;12.75;11.23;;;23.80;99.90;;;;;;5056857;28;20048;-77
2023/08/13 07:07:58;;;;;;;19.17;12.02;;;23.80;99.90;;;;;;5043920;28;20052;-77
2023/08/13 07:10:24;;;;;;;15.18;10.57;;;23.90;99.90;;;;;;5047185;28;20122;-78
2023/08/13 07:12:51;;;;;;;12.88;10.73;;;24.00;99.90;;;;;;5048246;28;20045;-78
2023/08/13 07:15:18;;;;;;;14.63;10.60;;;24.00;99.90;;;;;;5045680;28;20142;-78
2023/08/13 07:17:44;;;;;;;17.58;10.90;;;24.10;99.90;;;;;;5046231;28;20045;-78
2023/08/13 07:20:13;;;;;;;10.60;8.85;;;24.10;99.90;;;;;;5046875;28;20053;-78
2023/08/13 07:22:45;;;;;;;11.10;9.00;;;24.10;99.90;;;;;;5046744;28;20467;-78
2023/08/13 07:25:12;;;;;;;14.02;9.35;;;24.10;99.90;;;;;;5042139;28;20045;-77
2023/08/13 07:27:43;;;;;;;13.65;9.13;;;24.10;99.90;;;;;;5046908;28;20424;-78
2023/08/13 07:30:11;;;;;;;10.18;8.65;;;24.10;99.90;;;;;;5047761;28;20049;-78
2023/08/13 07:32:43;;;;;;;9.10;7.72;;;24.10;99.90;;;;;;5035264;28;20103;-78
2023/08/13 07:35:10;;;;;;;13.48;8.50;;;24.10;99.90;;;;;;5045200;28;20052;-78
2023/08/13 07:37:38;;;;;;;14.55;8.45;;;24.20;99.90;;;;;;5045812;28;20041;-78
2023/08/13 07:40:11;;;;;;;11.13;7.70;;;24.20;99.90;;;;;;5046622;28;20444;-78
2023/08/13 07:42:39;;;;;;;11.05;7.13;;;24.30;99.90;;;;;;5046380;28;20041;-77
2023/08/13 07:45:08;;;;;;;9.52;7.03;;;24.20;99.90;;;;;;5037462;28;20048;-78
2023/08/13 07:47:38;;;;;;;12.25;7.10;;;24.30;99.90;;;;;;5047959;28;20040;-77
2023/08/13 07:50:05;;;;;;;12.57;7.15;;;24.30;99.90;;;;;;5043945;28;20633;-77
2023/08/13 07:52:34;;;;;;;11.10;7.05;;;24.30;99.90;;;;;;5047152;28;20749;-77
2023/08/13 07:55:02;;;;;;;9.80;6.93;;;24.30;99.90;;;;;;5039941;28;20524;-77
2023/08/13 07:57:30;;;;;;;13.63;8.15;;;24.30;99.90;;;;;;5027061;28;20052;-79
2023/08/13 07:59:57;;;;;;;11.52;7.03;;;24.30;99.90;;;;;;5035904;28;20041;-78
2023/08/13 08:02:24;;;;;;;11.77;6.47;;;24.30;99.90;;;;;;5050442;28;20098;-78
2023/08/13 08:04:51;;;;;;;9.73;6.45;;;24.30;99.90;;;;;;5043148;28;20448;-78
2023/08/13 08:07:21;;;;;;;12.38;6.57;;;24.30;99.90;;;;;;5045790;28;20493;-78
2023/08/13 08:09:48;;;;;;;9.15;6.45;;;24.30;99.90;;;;;;5044260;28;20048;-77
2023/08/13 08:12:14;;;;;;;10.60;7.35;;;24.30;99.90;;;;;;5045754;28;20049;-76
2023/08/13 08:14:42;;;;;;;11.93;6.35;;;24.30;99.90;;;;;;5053701;28;20049;-78
2023/08/13 08:17:08;;;;;;;10.57;7.15;;;24.40;99.90;;;;;;5047483;28;20536;-78
2023/08/13 08:19:35;;;;;;;13.20;6.38;;;24.30;99.90;;;;;;5035015;28;20049;-77
2023/08/13 08:22:02;;;;;;;10.52;6.75;;;24.40;99.90;;;;;;5035462;28;20048;-77
2023/08/13 08:24:29;;;;;;;11.90;6.82;;;24.40;99.90;;;;;;5046506;28;20102;-78
2023/08/13 08:26:55;;;;;;;9.18;6.05;;;24.40;99.90;;;;;;5034401;28;20080;-77
2023/08/13 08:29:22;;;;;;;7.05;6.07;;;24.40;99.90;;;;;;5036533;28;20103;-78
2023/08/13 08:31:49;;;;;;;12.07;7.38;;;24.40;99.90;;;;;;5045520;28;20045;-78
2023/08/13 08:34:15;;;;;;;11.45;7.20;;;24.50;99.90;;;;;;5035032;28;20119;-77
2023/08/13 08:36:42;;;;;;;10.80;6.68;;;24.60;99.90;;;;;;5044223;28;20110;-79
2023/08/13 08:39:09;;;;;;;12.57;7.22;;;24.70;99.90;;;;;;5041310;28;20052;-78
2023/08/13 08:41:40;;;;;;;10.25;7.05;;;24.70;99.90;;;;;;5042483;28;20048;-77
2023/08/13 08:44:13;;;;;;;8.13;7.07;;;24.80;99.90;;;;;;5035124;28;20053;-78
2023/08/13 08:46:40;;;;;;;10.00;6.43;;;24.80;99.90;;;;;;5044598;28;20095;-78
2023/08/13 08:49:07;;;;;;;10.98;8.10;;;24.90;99.90;;;;;;5039573;28;20103;-78
2023/08/13 08:51:34;;;;;;;12.57;8.30;;;25.00;99.90;;;;;;5034313;28;20461;-78
2023/08/13 08:54:03;;;;;;;10.55;6.95;;;25.00;99.90;;;;;;5040772;28;20053;-78
2023/08/13 08:56:30;;;;;;;12.07;8.30;;;25.10;99.90;;;;;;5036396;28;20040;-78
2023/08/13 08:58:57;;;;;;;12.23;8.10;;;25.10;99.90;;;;;;5044646;28;20041;-78
2023/08/13 09:01:24;;;;;;;13.13;6.45;;;25.10;99.90;;;;;;5045945;28;20439;-78
2023/08/13 09:03:51;;;;;;;9.07;6.55;;;25.30;99.90;;;;;;5043334;28;20071;-78
2023/08/13 09:06:18;;;;;;;10.85;8.48;;;25.30;99.90;;;;;;5043835;28;20166;-78
2023/08/13 09:08:49;;;;;;;11.82;6.97;;;25.40;99.90;;;;;;5033780;28;20504;-79
2023/08/13 09:11:18;;;;;;;9.52;6.65;;;25.40;99.90;;;;;;5047397;28;20089;-78
2023/08/13 09:13:50;;;;;;;11.48;6.40;;;25.50;99.90;;;;;;5044462;28;20045;-78
2023/08/13 09:16:19;;;;;;;11.32;6.00;;;25.60;99.90;;;;;;5046113;28;20061;-78
2023/08/13 09:18:46;;;;;;;9.43;6.20;;;25.70;99.90;;;;;;5044027;28;20054;-78
2023/08/13 09:21:26;;;;;;;12.85;5.97;;;25.80;99.90;;;;;;5044879;28;20042;-80
2023/08/13 09:23:55;;;;;;;10.63;5.65;;;25.90;99.90;;;;;;5044421;28;20043;-78
2023/08/13 09:26:25;;;;;;;9.45;5.60;;;25.90;99.90;;;;;;5049359;28;20055;-78
2023/08/13 09:28:52;;;;;;;9.77;6.03;;;26.00;99.90;;;;;;5043086;28;20050;-78
2023/08/13 09:31:23;;;;;;;9.68;6.53;;;26.00;99.90;;;;;;5044642;28;20057;-78
2023/08/13 09:33:51;;;;;;;9.45;6.22;;;26.00;99.90;;;;;;5042588;28;20045;-79
2023/08/13 09:36:18;;;;;;;9.73;5.82;;;26.10;99.90;;;;;;5043374;28;20041;-78
2023/08/13 09:38:44;;;;;;;9.60;5.30;;;26.20;99.90;;;;;;5047864;28;20501;-78
2023/08/13 09:41:13;;;;;;;5.85;4.32;;;26.20;99.90;;;;;;5033453;28;20049;-78
2023/08/13 09:43:42;;;;;;;10.30;4.20;;;26.30;99.90;;;;;;5042617;28;20116;-78
2023/08/13 09:46:11;;;;;;;8.02;4.80;;;26.40;99.90;;;;;;5045317;28;20057;-78
2023/08/13 09:48:39;;;;;;;8.52;5.60;;;26.50;99.90;;;;;;5038298;28;20140;-79
2023/08/13 09:51:07;;;;;;;5.78;4.35;;;26.60;99.90;;;;;;5046693;28;20573;-78
2023/08/13 09:53:35;;;;;;;6.53;3.97;;;26.70;99.90;;;;;;5048416;28;20492;-79
2023/08/13 09:56:03;;;;;;;4.47;2.80;;;26.80;99.90;;;;;;5048181;28;20072;-79
2023/08/13 09:58:31;;;;;;;5.65;2.55;;;26.80;99.90;;;;;;5046188;28;20046;-78
2023/08/13 10:00:59;;;;;;;6.65;3.53;;;26.90;99.90;;;;;;5045645;28;20099;-78
2023/08/13 10:03:27;;;;;;;4.03;2.70;;;26.80;99.90;;;;;;5038102;28;20124;-79
2023/08/13 10:05:55;;;;;;;9.18;4.55;;;26.60;99.90;;;;;;5046349;28;20068;-78
2023/08/13 10:08:23;;;;;;;4.25;2.55;;;26.60;99.90;;;;;;5046965;28;20464;-78
2023/08/13 10:10:50;;;;;;;6.35;2.78;;;26.60;99.90;;;;;;5044731;28;20046;-78
2023/08/13 10:13:18;;;;;;;6.75;2.75;;;26.70;99.90;;;;;;5041036;28;20053;-78
2023/08/13 10:15:46;;;;;;;5.50;2.75;;;26.70;99.90;;;;;;5032318;28;20099;-78
2023/08/13 10:18:15;;;;;;;6.00;2.55;;;26.70;99.90;;;;;;5039824;28;20064;-78
2023/08/13 10:20:45;;;;;;;3.63;2.45;;;26.70;99.90;;;;;;5045102;28;20045;-78
2023/08/13 10:23:12;;;;;;;7.75;2.42;;;26.70;99.90;;;;;;5032783;28;20046;-78
2023/08/13 10:25:39;;;;;;;3.83;2.63;;;26.60;99.90;;;;;;5046340;28;20044;-78
2023/08/13 10:28:20;;;;;;;3.42;2.85;;;26.60;99.90;;;;;;5034124;28;20466;-78
2023/08/13 10:30:47;;;;;;;4.78;3.08;;;26.60;99.90;;;;;;5043532;28;20053;-78
2023/08/13 10:33:14;;;;;;;6.05;3.22;;;26.50;99.90;;;;;;5038626;28;20111;-78
2023/08/13 10:35:42;;;;;;;5.32;2.53;;;26.50;99.90;;;;;;5044830;28;20052;-77
2023/08/13 10:38:09;;;;;;;3.72;2.90;;;26.30;99.90;;;;;;5031777;28;20053;-77
2023/08/13 10:41:02;;;;;;;3.33;2.58;;;26.30;99.90;;;;;;5047655;28;20044;-78
2023/08/13 10:43:29;;;;;;;3.08;2.30;;;26.20;99.90;;;;;;5043779;28;20049;-77
2023/08/13 10:45:56;;;;;;;7.30;3.00;;;26.30;99.90;;;;;;5049003;28;20041;-78
2023/08/13 10:48:30;;;;;;;5.80;2.53;;;26.30;99.90;;;;;;5046335;28;20137;-79
2023/08/13 10:50:58;;;;;;;4.05;3.08;;;26.30;99.90;;;;;;5045098;28;20041;-78
2023/08/13 10:53:27;;;;;;;4.47;3.00;;;26.30;99.90;;;;;;5033706;28;20053;-77
2023/08/13 10:55:56;;;;;;;6.25;3.70;;;26.30;99.90;;;;;;5053906;28;20080;-77
2023/08/13 10:58:34;;;;;;;6.40;4.45;;;26.30;99.90;;;;;;5043711;28;20046;-78
2023/08/13 11:01:12;;;;;;;5.63;3.55;;;26.30;99.90;;;;;;5047974;28;20052;-77
2023/08/13 11:03:48;;;;;;;5.13;3.65;;;26.30;99.90;;;;;;5047658;28;20107;-77
2023/08/13 11:06:15;;;;;;;4.38;2.97;;;26.30;99.90;;;;;;5052361;28;20116;-77
2023/08/13 11:08:46;;;;;;;7.07;3.85;;;26.30;99.90;;;;;;5034947;28;20099;-77
2023/08/13 11:11:16;;;;;;;5.88;3.90;;;26.30;99.90;;;;;;5047614;28;20045;-77
2023/08/13 11:13:44;;;;;;;6.15;3.92;;;26.30;99.90;;;;;;5046416;28;20041;-78
2023/08/13 11:16:11;;;;;;;8.23;3.78;;;26.40;99.90;;;;;;5055054;28;20476;-77
2023/08/13 11:18:38;;;;;;;6.35;3.45;;;26.40;99.90;;;;;;5057778;28;20163;-80
2023/08/13 11:21:06;;;;;;;5.57;3.63;;;26.40;99.90;;;;;;5055261;28;20049;-78
2023/08/13 11:23:32;;;;;;;5.25;3.15;;;26.40;99.90;;;;;;5054316;28;20045;-77
2023/08/13 11:25:59;;;;;;;6.57;4.07;;;26.50;99.90;;;;;;5047646;28;20041;-79
2023/08/13 11:28:28;;;;;;;5.03;3.50;;;26.50;99.90;;;;;;5028949;28;20045;-78
2023/08/13 11:30:56;;;;;;;5.78;3.40;;;26.40;99.90;;;;;;5050374;28;20041;-79
2023/08/13 11:33:24;;;;;;;6.15;3.97;;;26.50;99.90;;;;;;5050472;28;20049;-78
2023/08/13 11:35:51;;;;;;;5.93;3.30;;;26.40;99.90;;;;;;5045088;28;20044;-77
2023/08/13 11:38:18;;;;;;;8.95;4.15;;;26.50;99.90;;;;;;5051629;28;20099;-78
2023/08/13 11:40:46;;;;;;;5.38;3.60;;;26.50;99.90;;;;;;5039928;28;20094;-77
2023/08/13 11:43:13;;;;;;;6.10;3.67;;;26.50;99.90;;;;;;5042867;28;20052;-77
2023/08/13 11:45:41;;;;;;;8.20;3.70;;;26.50;99.90;;;;;;5052573;28;20043;-78
2023/08/13 11:48:10;;;;;;;5.38;3.70;;;26.60;99.90;;;;;;5041985;28;20053;-77
2023/08/13 11:50:38;;;;;;;5.50;3.20;;;26.50;99.90;;;;;;5052275;28;20087;-77
2023/08/13 11:53:10;;;;;;;7.45;3.80;;;26.50;99.90;;;;;;5051727;28;20063;-77
2023/08/13 11:55:45;;;;;;;7.03;3.65;;;26.50;99.90;;;;;;5053459;28;20591;-77
2023/08/13 11:58:16;;;;;;;6.30;3.33;;;26.50;99.90;;;;;;5049497;28;20488;-77
2023/08/13 12:00:44;;;;;;;6.95;2.90;;;26.60;99.90;;;;;;5055780;28;20041;-77
2023/08/13 12:03:13;;;;;;;6.45;3.45;;;26.60;99.90;;;;;;5042067;28;20107;-77
2023/08/13 12:05:40;;;;;;;4.50;2.78;;;26.60;99.90;;;;;;5049703;28;20108;-77
2023/08/13 12:08:09;;;;;;;7.03;3.00;;;26.70;99.90;;;;;;5047363;28;20049;-77
2023/08/13 12:10:37;;;;;;;3.47;2.40;;;26.70;99.90;;;;;;5047360;28;20049;-79
2023/08/13 12:13:04;;;;;;;4.75;3.00;;;26.80;99.90;;;;;;5029863;28;20049;-77
2023/08/13 12:15:31;;;;;;;4.60;2.60;;;26.90;99.90;;;;;;5049637;28;20052;-77
2023/08/13 12:17:59;;;;;;;4.88;2.63;;;27.00;99.90;;;;;;5044669;28;20053;-80
2023/08/13 12:20:27;;;;;;;5.28;2.85;;;27.00;99.90;;;;;;5048785;28;20043;-78
2023/08/13 12:22:54;;;;;;;3.40;2.53;;;27.10;99.90;;;;;;5045680;28;20477;-77
2023/08/13 12:25:21;;;;;;;4.30;2.47;;;27.10;99.90;;;;;;5043796;28;20045;-77
2023/08/13 12:27:51;;;;;;;6.00;2.42;;;27.20;99.90;;;;;;5044863;28;20041;-79
2023/08/13 12:30:18;;;;;;;;;;;27.20;99.90;;;;;;5050133;28;20048;-78
2023/08/13 12:32:45;;;;;;;3.97;2.20;;;27.30;99.90;;;;;;5053772;28;19966;-78
2023/08/13 12:35:12;;;;;;;5.95;2.58;;;27.30;99.90;;;;;;5048088;28;20054;-77
2023/08/13 12:37:39;;;;;;;2.85;2.50;;;27.40;99.90;;;;;;5052359;28;20136;-77
2023/08/13 12:40:10;;;;;;;5.40;2.38;;;27.40;99.90;;;;;;5054422;28;20452;-78
2023/08/13 12:42:38;;;;;;;4.55;2.60;;;27.40;99.90;;;;;;5036974;28;20077;-79
2023/08/13 12:45:06;;;;;;;5.20;2.55;;;27.50;99.90;;;;;;5051945;28;20106;-80
2023/08/13 12:47:34;;;;;;;3.20;2.42;;;27.50;99.90;;;;;;5052388;28;20056;-78